Nearby METAR Reports

 

KPBH - Phillips, Wisconsin, USA
Distance from station: SE 13mi, 21km
Updated: 06/16/2021 12:35pm
Clear
Clear
 Wind from calm
Wind: Calm
Temperature: 72°F , 22°C
Dew Point: 50°F , 10°C
Humidity: 47%
Barometer: 30.13 inHg , 1020.3 hPa
Clouds: Clear
Visibility: 10 miles , 16 km
2021/06/16 17:35 KPBH 161735Z AUTO 00000KT 10SM CLR 22/10 A3013 RMK AO2 T02230099
KRCX - Ladysmith/Rusk, Wisconsin, USA
Distance from station: SW 29mi, 46km
Updated: 06/16/2021 12:35pm
Clear
Clear
 Wind from S
Wind: S 6 mph , 9 km/h
Temperature: 75°F , 24°C
Dew Point: 50°F , 10°C
Humidity: 41%
Barometer: 30.14 inHg , 1020.7 hPa
Clouds: Clear
Visibility: 10 miles , 16 km
2021/06/16 17:35 KRCX 161735Z AUTO 19005KT 10SM CLR 24/10 A3014 RMK AO2 T02360104
 
KD25 - Manitowish Water, Wisconsin, USA
Distance from station: ENE 41mi, 66km
Updated: 06/16/2021 12:35pm
Clear
Clear
 Wind from SSW
Wind: SSW 7 mph , 11 km/h
Temperature: 72°F , 22°C
Dew Point: 41°F , 5°C
Humidity: 33%
Barometer: 30.13 inHg , 1020.3 hPa
Clouds: Clear
Visibility: 10 miles , 16 km
2021/06/16 17:35 KD25 161735Z AUTO 21006KT 10SM CLR 22/05 A3013 RMK AO2 T02210048
KHYR - Hayward, Wisconsin, USA
Distance from station: WNW 42mi, 68km
Updated: 06/16/2021 11:53am
Clear
Clear
 Wind from SSW
Wind: SSW 6 mph , 9 km/h
Temperature: 75°F , 24°C
Dew Point: 48°F , 9°C
Humidity: 39%
Barometer: 30.12 inHg , 1020 hPa
Clouds: Clear
Visibility: 10 miles , 16 km
2021/06/16 16:53 KHYR 161653Z AUTO 21005KT 10SM CLR 24/09 A3012 RMK AO2 SLP198 T02390089
 
KARV - Minocqua/Woodruf, Wisconsin, USA
Distance from station: E 44mi, 71km
Updated: 06/16/2021 12:35pm
Clear
Clear
 Wind from S
Wind: S 6 mph , 9 km/h
Temperature: 72°F , 22°C
Dew Point: 43°F , 6°C
Humidity: 36%
Barometer: 30.14 inHg , 1020.7 hPa
Clouds: Clear
Visibility: 10 miles , 16 km
2021/06/16 17:35 KARV 161735Z AUTO 18005KT 10SM CLR 22/06 A3014 RMK AO2 T02220055
KTKV - Tomahawk Regnl, Wisconsin, USA
Distance from station: ESE 46mi, 74km
Updated: 06/16/2021 12:35pm
Clear
Clear
 Wind from calm
Wind: Calm
Temperature: 72°F , 22°C
Dew Point: 46°F , 8°C
Humidity: 41%
Barometer: 30.15 inHg , 1021 hPa
Clouds: Clear
Visibility: 10 miles , 16 km
2021/06/16 17:35 KTKV 161735Z AUTO 00000KT 10SM CLR 22/08 A3015 RMK AO2 T02190082 PWINO